Terminal Aerodrome Forecast
Issued by NWS Sterling, VA

Current Version | Previous Version | Graphics & Text | Print | Product List | Glossary On
Versions: 1 2 3 4 5 6 7 8 9 10 11 12 13 14 15 16
720
FTUS41 KLWX 211127
TAFMRB
TAF
KMRB 211127Z 2112/2212 VRB03KT P6SM SCT200
     FM211500 26007KT P6SM SCT110
     FM211800 27011KT P6SM SCT050
     FM212000 27010KT P6SM BKN060
     FM212300 27006KT P6SM SCT070
     FM220200 00000KT P6SM SCT080=

USA.gov is the U.S. government's official web portal to all federal, state and local government web resources and services.